sensor_id;sensor_type;location;lat;lon;timestamp;temperature;humidity
27266;DHT22;14766;51.380;13.762;2023-06-10T00:00:01;25.10;44.60
27266;DHT22;14766;51.380;13.762;2023-06-10T00:02:38;25.00;44.70
27266;DHT22;14766;51.380;13.762;2023-06-10T00:05:07;25.00;44.80
27266;DHT22;14766;51.380;13.762;2023-06-10T00:07:39;24.90;44.90
27266;DHT22;14766;51.380;13.762;2023-06-10T00:10:08;24.90;45.00
27266;DHT22;14766;51.380;13.762;2023-06-10T00:12:37;24.80;45.10
27266;DHT22;14766;51.380;13.762;2023-06-10T00:15:07;24.80;45.30
27266;DHT22;14766;51.380;13.762;2023-06-10T00:17:35;24.80;45.40
27266;DHT22;14766;51.380;13.762;2023-06-10T00:20:08;24.80;45.60
27266;DHT22;14766;51.380;13.762;2023-06-10T00:22:40;24.70;45.60
27266;DHT22;14766;51.380;13.762;2023-06-10T00:25:09;24.70;45.60
27266;DHT22;14766;51.380;13.762;2023-06-10T00:27:37;24.60;45.80
27266;DHT22;14766;51.380;13.762;2023-06-10T00:30:05;24.60;46.00
27266;DHT22;14766;51.380;13.762;2023-06-10T00:32:34;24.60;46.10
27266;DHT22;14766;51.380;13.762;2023-06-10T00:35:06;24.50;46.10
27266;DHT22;14766;51.380;13.762;2023-06-10T00:37:34;24.50;46.10
27266;DHT22;14766;51.380;13.762;2023-06-10T00:40:03;24.50;46.30
27266;DHT22;14766;51.380;13.762;2023-06-10T00:42:31;24.40;46.40
27266;DHT22;14766;51.380;13.762;2023-06-10T00:44:59;24.40;46.50
27266;DHT22;14766;51.380;13.762;2023-06-10T00:47:27;24.30;46.70
27266;DHT22;14766;51.380;13.762;2023-06-10T00:49:55;24.30;46.80
27266;DHT22;14766;51.380;13.762;2023-06-10T00:52:27;24.30;46.80
27266;DHT22;14766;51.380;13.762;2023-06-10T00:54:55;24.30;47.00
27266;DHT22;14766;51.380;13.762;2023-06-10T00:57:22;24.20;47.00
27266;DHT22;14766;51.380;13.762;2023-06-10T00:59:50;24.20;47.10
27266;DHT22;14766;51.380;13.762;2023-06-10T01:02:18;24.20;47.30
27266;DHT22;14766;51.380;13.762;2023-06-10T01:04:45;24.10;47.30
27266;DHT22;14766;51.380;13.762;2023-06-10T01:13:05;24.00;47.50
27266;DHT22;14766;51.380;13.762;2023-06-10T01:15:35;24.00;47.90
27266;DHT22;14766;51.380;13.762;2023-06-10T01:18:04;24.00;47.60
27266;DHT22;14766;51.380;13.762;2023-06-10T01:20:37;24.00;47.80
27266;DHT22;14766;51.380;13.762;2023-06-10T01:23:07;23.90;47.90
27266;DHT22;14766;51.380;13.762;2023-06-10T01:25:38;23.90;48.10
27266;DHT22;14766;51.380;13.762;2023-06-10T01:30:48;23.80;48.10
27266;DHT22;14766;51.380;13.762;2023-06-10T01:33:35;23.80;48.20
27266;DHT22;14766;51.380;13.762;2023-06-10T01:36:03;23.80;48.70
27266;DHT22;14766;51.380;13.762;2023-06-10T01:38:33;23.70;48.70
27266;DHT22;14766;51.380;13.762;2023-06-10T01:41:03;23.70;48.90
27266;DHT22;14766;51.380;13.762;2023-06-10T01:43:38;23.60;48.80
27266;DHT22;14766;51.380;13.762;2023-06-10T01:46:06;23.50;49.10
27266;DHT22;14766;51.380;13.762;2023-06-10T01:48:34;23.50;49.30
27266;DHT22;14766;51.380;13.762;2023-06-10T01:51:01;23.40;49.20
27266;DHT22;14766;51.380;13.762;2023-06-10T01:53:28;23.40;49.40
27266;DHT22;14766;51.380;13.762;2023-06-10T01:55:56;23.30;49.60
27266;DHT22;14766;51.380;13.762;2023-06-10T01:58:23;23.30;49.60
27266;DHT22;14766;51.380;13.762;2023-06-10T02:00:50;23.30;49.80
27266;DHT22;14766;51.380;13.762;2023-06-10T02:03:18;23.30;49.90
27266;DHT22;14766;51.380;13.762;2023-06-10T02:05:47;23.20;49.90
27266;DHT22;14766;51.380;13.762;2023-06-10T02:08:15;23.20;49.80
27266;DHT22;14766;51.380;13.762;2023-06-10T02:10:43;23.20;49.80
27266;DHT22;14766;51.380;13.762;2023-06-10T02:13:10;23.20;50.10
27266;DHT22;14766;51.380;13.762;2023-06-10T02:15:38;23.10;50.10
27266;DHT22;14766;51.380;13.762;2023-06-10T02:18:05;23.10;50.10
27266;DHT22;14766;51.380;13.762;2023-06-10T02:20:32;23.10;50.20
27266;DHT22;14766;51.380;13.762;2023-06-10T02:23:02;23.00;50.20
27266;DHT22;14766;51.380;13.762;2023-06-10T02:25:30;23.00;50.40
27266;DHT22;14766;51.380;13.762;2023-06-10T02:27:57;23.00;50.40
27266;DHT22;14766;51.380;13.762;2023-06-10T02:30:24;22.90;50.30
27266;DHT22;14766;51.380;13.762;2023-06-10T02:32:51;22.90;50.40
27266;DHT22;14766;51.380;13.762;2023-06-10T02:35:20;22.90;50.40
27266;DHT22;14766;51.380;13.762;2023-06-10T02:37:47;22.90;50.50
27266;DHT22;14766;51.380;13.762;2023-06-10T02:40:15;22.80;50.50
27266;DHT22;14766;51.380;13.762;2023-06-10T02:42:43;22.80;50.70
27266;DHT22;14766;51.380;13.762;2023-06-10T02:45:11;22.80;50.80
27266;DHT22;14766;51.380;13.762;2023-06-10T02:47:41;22.70;50.80
27266;DHT22;14766;51.380;13.762;2023-06-10T02:50:10;22.70;50.80
27266;DHT22;14766;51.380;13.762;2023-06-10T02:52:51;22.70;51.00
27266;DHT22;14766;51.380;13.762;2023-06-10T02:55:19;22.60;51.10
27266;DHT22;14766;51.380;13.762;2023-06-10T02:57:52;22.60;51.30
27266;DHT22;14766;51.380;13.762;2023-06-10T03:00:22;22.60;51.40
27266;DHT22;14766;51.380;13.762;2023-06-10T03:02:50;22.50;51.30
27266;DHT22;14766;51.380;13.762;2023-06-10T03:05:22;22.50;51.40
27266;DHT22;14766;51.380;13.762;2023-06-10T03:07:51;22.50;51.30
27266;DHT22;14766;51.380;13.762;2023-06-10T03:10:19;22.50;51.40
27266;DHT22;14766;51.380;13.762;2023-06-10T03:12:47;22.40;51.40
27266;DHT22;14766;51.380;13.762;2023-06-10T03:15:15;22.40;51.50
27266;DHT22;14766;51.380;13.762;2023-06-10T03:17:43;22.40;51.60
27266;DHT22;14766;51.380;13.762;2023-06-10T03:20:12;22.40;51.60
27266;DHT22;14766;51.380;13.762;2023-06-10T03:22:44;22.40;51.80
27266;DHT22;14766;51.380;13.762;2023-06-10T03:25:12;22.40;51.70
27266;DHT22;14766;51.380;13.762;2023-06-10T03:27:44;22.30;51.70
27266;DHT22;14766;51.380;13.762;2023-06-10T03:30:13;22.30;51.70
27266;DHT22;14766;51.380;13.762;2023-06-10T03:32:41;22.30;51.90
27266;DHT22;14766;51.380;13.762;2023-06-10T03:35:11;22.30;51.90
27266;DHT22;14766;51.380;13.762;2023-06-10T03:37:39;22.30;52.10
27266;DHT22;14766;51.380;13.762;2023-06-10T03:40:08;22.30;52.10
27266;DHT22;14766;51.380;13.762;2023-06-10T03:42:37;22.30;52.20
27266;DHT22;14766;51.380;13.762;2023-06-10T03:45:05;22.30;52.30
27266;DHT22;14766;51.380;13.762;2023-06-10T03:47:35;22.30;52.30
27266;DHT22;14766;51.380;13.762;2023-06-10T03:50:08;22.20;52.30
27266;DHT22;14766;51.380;13.762;2023-06-10T03:52:37;22.20;52.50
27266;DHT22;14766;51.380;13.762;2023-06-10T03:55:05;22.20;52.60
27266;DHT22;14766;51.380;13.762;2023-06-10T03:57:34;22.30;52.70
27266;DHT22;14766;51.380;13.762;2023-06-10T04:00:01;22.30;52.80
27266;DHT22;14766;51.380;13.762;2023-06-10T04:02:40;22.30;52.70
27266;DHT22;14766;51.380;13.762;2023-06-10T04:05:30;22.30;52.70
27266;DHT22;14766;51.380;13.762;2023-06-10T04:07:57;22.30;52.80
27266;DHT22;14766;51.380;13.762;2023-06-10T04:10:25;22.30;52.80
27266;DHT22;14766;51.380;13.762;2023-06-10T04:12:53;22.30;52.80
27266;DHT22;14766;51.380;13.762;2023-06-10T04:15:23;22.40;52.90
27266;DHT22;14766;51.380;13.762;2023-06-10T04:17:51;22.40;53.00
27266;DHT22;14766;51.380;13.762;2023-06-10T04:20:22;22.40;53.00
27266;DHT22;14766;51.380;13.762;2023-06-10T04:22:49;22.50;53.20
27266;DHT22;14766;51.380;13.762;2023-06-10T04:25:17;22.50;53.20
27266;DHT22;14766;51.380;13.762;2023-06-10T04:27:44;22.50;53.30
27266;DHT22;14766;51.380;13.762;2023-06-10T04:30:13;22.60;53.20
27266;DHT22;14766;51.380;13.762;2023-06-10T04:32:40;22.60;53.30
27266;DHT22;14766;51.380;13.762;2023-06-10T04:35:13;22.70;53.50
27266;DHT22;14766;51.380;13.762;2023-06-10T04:37:41;22.70;53.50
27266;DHT22;14766;51.380;13.762;2023-06-10T04:40:10;22.80;53.60
27266;DHT22;14766;51.380;13.762;2023-06-10T04:42:38;22.80;53.60
27266;DHT22;14766;51.380;13.762;2023-06-10T04:45:06;22.90;53.80
27266;DHT22;14766;51.380;13.762;2023-06-10T04:47:34;22.90;53.90
27266;DHT22;14766;51.380;13.762;2023-06-10T04:50:02;23.00;53.80
27266;DHT22;14766;51.380;13.762;2023-06-10T04:52:29;23.00;53.70
27266;DHT22;14766;51.380;13.762;2023-06-10T04:54:58;23.10;53.90
27266;DHT22;14766;51.380;13.762;2023-06-10T04:57:26;23.10;53.80
27266;DHT22;14766;51.380;13.762;2023-06-10T04:59:53;23.20;53.80
27266;DHT22;14766;51.380;13.762;2023-06-10T05:02:21;23.20;53.80
27266;DHT22;14766;51.380;13.762;2023-06-10T05:04:48;23.30;54.00
27266;DHT22;14766;51.380;13.762;2023-06-10T05:07:16;23.30;54.00
27266;DHT22;14766;51.380;13.762;2023-06-10T05:09:45;23.30;53.80
27266;DHT22;14766;51.380;13.762;2023-06-10T05:12:13;23.40;54.60
27266;DHT22;14766;51.380;13.762;2023-06-10T05:14:40;23.50;53.90
27266;DHT22;14766;51.380;13.762;2023-06-10T05:17:07;23.50;53.80
27266;DHT22;14766;51.380;13.762;2023-06-10T05:19:35;23.60;53.80
27266;DHT22;14766;51.380;13.762;2023-06-10T05:22:03;23.60;53.70
27266;DHT22;14766;51.380;13.762;2023-06-10T05:24:30;23.70;53.60
27266;DHT22;14766;51.380;13.762;2023-06-10T05:26:58;23.80;53.50
27266;DHT22;14766;51.380;13.762;2023-06-10T05:29:25;23.80;53.50
27266;DHT22;14766;51.380;13.762;2023-06-10T05:31:53;23.90;53.70
27266;DHT22;14766;51.380;13.762;2023-06-10T05:34:20;23.90;53.30
27266;DHT22;14766;51.380;13.762;2023-06-10T05:36:49;24.00;53.20
27266;DHT22;14766;51.380;13.762;2023-06-10T05:39:16;24.10;53.20
27266;DHT22;14766;51.380;13.762;2023-06-10T05:41:43;24.10;53.10
27266;DHT22;14766;51.380;13.762;2023-06-10T05:44:10;24.10;53.00
27266;DHT22;14766;51.380;13.762;2023-06-10T05:46:40;24.20;52.90
27266;DHT22;14766;51.380;13.762;2023-06-10T05:49:08;24.30;52.70
27266;DHT22;14766;51.380;13.762;2023-06-10T05:51:35;24.40;52.60
27266;DHT22;14766;51.380;13.762;2023-06-10T05:54:04;24.40;52.50
27266;DHT22;14766;51.380;13.762;2023-06-10T05:56:31;24.50;53.20
27266;DHT22;14766;51.380;13.762;2023-06-10T05:58:58;24.60;52.40
27266;DHT22;14766;51.380;13.762;2023-06-10T06:01:25;24.70;52.30
27266;DHT22;14766;51.380;13.762;2023-06-10T06:03:52;24.80;52.20
27266;DHT22;14766;51.380;13.762;2023-06-10T06:06:20;24.80;51.60
27266;DHT22;14766;51.380;13.762;2023-06-10T06:08:50;24.90;51.50
27266;DHT22;14766;51.380;13.762;2023-06-10T06:11:17;25.00;51.50
27266;DHT22;14766;51.380;13.762;2023-06-10T06:13:44;25.10;51.30
27266;DHT22;14766;51.380;13.762;2023-06-10T06:16:12;25.20;50.50
27266;DHT22;14766;51.380;13.762;2023-06-10T06:18:39;25.20;50.50
27266;DHT22;14766;51.380;13.762;2023-06-10T06:21:06;25.30;50.20
27266;DHT22;14766;51.380;13.762;2023-06-10T06:23:33;25.40;50.20
27266;DHT22;14766;51.380;13.762;2023-06-10T06:26:00;25.40;50.10
27266;DHT22;14766;51.380;13.762;2023-06-10T06:28:27;25.50;49.90
27266;DHT22;14766;51.380;13.762;2023-06-10T06:30:58;25.50;49.80
27266;DHT22;14766;51.380;13.762;2023-06-10T06:33:25;25.60;49.90
27266;DHT22;14766;51.380;13.762;2023-06-10T06:35:53;25.70;50.10
27266;DHT22;14766;51.380;13.762;2023-06-10T06:38:21;25.80;49.90
27266;DHT22;14766;51.380;13.762;2023-06-10T06:40:48;25.90;49.70
27266;DHT22;14766;51.380;13.762;2023-06-10T06:43:16;26.00;49.30
27266;DHT22;14766;51.380;13.762;2023-06-10T06:46:03;26.10;49.30
27266;DHT22;14766;51.380;13.762;2023-06-10T06:48:30;26.20;49.30
27266;DHT22;14766;51.380;13.762;2023-06-10T06:50:58;26.40;48.80
27266;DHT22;14766;51.380;13.762;2023-06-10T06:53:26;26.40;48.40
27266;DHT22;14766;51.380;13.762;2023-06-10T06:55:58;26.50;48.50
27266;DHT22;14766;51.380;13.762;2023-06-10T06:58:26;26.70;48.50
27266;DHT22;14766;51.380;13.762;2023-06-10T07:00:53;26.80;48.50
27266;DHT22;14766;51.380;13.762;2023-06-10T07:03:21;26.90;48.30
27266;DHT22;14766;51.380;13.762;2023-06-10T07:05:48;27.00;48.00
27266;DHT22;14766;51.380;13.762;2023-06-10T07:08:15;27.20;47.60
27266;DHT22;14766;51.380;13.762;2023-06-10T07:10:43;27.40;47.80
27266;DHT22;14766;51.380;13.762;2023-06-10T07:13:10;27.50;47.60
27266;DHT22;14766;51.380;13.762;2023-06-10T07:15:41;27.70;47.20
27266;DHT22;14766;51.380;13.762;2023-06-10T07:18:10;27.80;47.00
27266;DHT22;14766;51.380;13.762;2023-06-10T07:20:39;28.10;46.40
27266;DHT22;14766;51.380;13.762;2023-06-10T07:23:07;28.30;46.20
27266;DHT22;14766;51.380;13.762;2023-06-10T07:25:34;28.40;46.20
27266;DHT22;14766;51.380;13.762;2023-06-10T07:28:01;28.60;45.50
27266;DHT22;14766;51.380;13.762;2023-06-10T07:30:28;28.80;45.30
27266;DHT22;14766;51.380;13.762;2023-06-10T07:32:55;29.00;44.20
27266;DHT22;14766;51.380;13.762;2023-06-10T07:35:23;29.20;44.00
27266;DHT22;14766;51.380;13.762;2023-06-10T07:37:50;29.40;44.20
27266;DHT22;14766;51.380;13.762;2023-06-10T07:40:17;29.50;43.40
27266;DHT22;14766;51.380;13.762;2023-06-10T07:42:45;29.70;43.10
27266;DHT22;14766;51.380;13.762;2023-06-10T07:45:12;29.80;42.50
27266;DHT22;14766;51.380;13.762;2023-06-10T07:47:39;30.00;42.80
27266;DHT22;14766;51.380;13.762;2023-06-10T07:50:06;30.20;42.30
27266;DHT22;14766;51.380;13.762;2023-06-10T07:52:33;30.40;41.20
27266;DHT22;14766;51.380;13.762;2023-06-10T07:55:01;30.60;40.60
27266;DHT22;14766;51.380;13.762;2023-06-10T07:57:28;30.70;39.30
27266;DHT22;14766;51.380;13.762;2023-06-10T07:59:55;30.90;39.70
27266;DHT22;14766;51.380;13.762;2023-06-10T08:02:24;31.00;38.90
27266;DHT22;14766;51.380;13.762;2023-06-10T08:04:51;31.10;38.30
27266;DHT22;14766;51.380;13.762;2023-06-10T08:07:19;31.20;38.60
27266;DHT22;14766;51.380;13.762;2023-06-10T08:09:49;31.30;37.30
27266;DHT22;14766;51.380;13.762;2023-06-10T08:12:16;31.50;37.00
27266;DHT22;14766;51.380;13.762;2023-06-10T08:14:44;31.50;36.90
27266;DHT22;14766;51.380;13.762;2023-06-10T08:17:11;31.60;37.20
27266;DHT22;14766;51.380;13.762;2023-06-10T08:19:38;31.70;36.60
27266;DHT22;14766;51.380;13.762;2023-06-10T08:22:05;31.80;36.60
27266;DHT22;14766;51.380;13.762;2023-06-10T08:24:32;31.80;36.50
27266;DHT22;14766;51.380;13.762;2023-06-10T08:27:00;31.90;35.80
27266;DHT22;14766;51.380;13.762;2023-06-10T08:29:29;32.00;35.40
27266;DHT22;14766;51.380;13.762;2023-06-10T08:31:58;32.10;35.00
27266;DHT22;14766;51.380;13.762;2023-06-10T08:34:25;32.20;34.70
27266;DHT22;14766;51.380;13.762;2023-06-10T08:36:52;32.30;35.10
27266;DHT22;14766;51.380;13.762;2023-06-10T08:39:22;32.40;34.90
27266;DHT22;14766;51.380;13.762;2023-06-10T08:42:19;32.40;34.40
27266;DHT22;14766;51.380;13.762;2023-06-10T08:44:54;32.50;34.30
27266;DHT22;14766;51.380;13.762;2023-06-10T08:47:23;32.70;34.60
27266;DHT22;14766;51.380;13.762;2023-06-10T08:49:51;32.80;34.10
27266;DHT22;14766;51.380;13.762;2023-06-10T08:52:20;33.00;33.50
27266;DHT22;14766;51.380;13.762;2023-06-10T08:54:52;33.10;33.00
27266;DHT22;14766;51.380;13.762;2023-06-10T08:57:22;33.20;33.00
27266;DHT22;14766;51.380;13.762;2023-06-10T08:59:50;33.40;32.70
27266;DHT22;14766;51.380;13.762;2023-06-10T09:02:19;33.50;32.50
27266;DHT22;14766;51.380;13.762;2023-06-10T09:04:48;33.60;31.40
27266;DHT22;14766;51.380;13.762;2023-06-10T09:07:16;33.70;31.00
27266;DHT22;14766;51.380;13.762;2023-06-10T09:09:44;33.80;31.00
27266;DHT22;14766;51.380;13.762;2023-06-10T09:12:13;33.90;29.90
27266;DHT22;14766;51.380;13.762;2023-06-10T09:14:44;33.90;30.30
27266;DHT22;14766;51.380;13.762;2023-06-10T09:17:12;33.90;31.10
27266;DHT22;14766;51.380;13.762;2023-06-10T09:19:41;34.00;30.80
27266;DHT22;14766;51.380;13.762;2023-06-10T09:22:09;34.10;30.50
27266;DHT22;14766;51.380;13.762;2023-06-10T09:24:37;34.10;30.30
27266;DHT22;14766;51.380;13.762;2023-06-10T09:27:05;34.20;29.80
27266;DHT22;14766;51.380;13.762;2023-06-10T09:29:55;34.10;29.30
27266;DHT22;14766;51.380;13.762;2023-06-10T09:32:22;34.00;29.20
27266;DHT22;14766;51.380;13.762;2023-06-10T09:34:52;33.90;29.70
27266;DHT22;14766;51.380;13.762;2023-06-10T09:37:25;33.90;29.50
27266;DHT22;14766;51.380;13.762;2023-06-10T09:40:03;33.80;29.30
27266;DHT22;14766;51.380;13.762;2023-06-10T09:42:38;33.80;29.40
27266;DHT22;14766;51.380;13.762;2023-06-10T09:45:07;33.80;29.10
27266;DHT22;14766;51.380;13.762;2023-06-10T09:47:34;33.90;29.00
27266;DHT22;14766;51.380;13.762;2023-06-10T09:50:02;33.90;29.50
27266;DHT22;14766;51.380;13.762;2023-06-10T09:52:30;33.90;29.00
27266;DHT22;14766;51.380;13.762;2023-06-10T09:55:01;33.90;29.00
27266;DHT22;14766;51.380;13.762;2023-06-10T09:57:32;34.00;28.70
27266;DHT22;14766;51.380;13.762;2023-06-10T10:00:09;34.00;28.80
27266;DHT22;14766;51.380;13.762;2023-06-10T10:02:48;34.10;28.60
27266;DHT22;14766;51.380;13.762;2023-06-10T10:05:18;34.10;28.30
27266;DHT22;14766;51.380;13.762;2023-06-10T10:07:47;34.00;28.50
27266;DHT22;14766;51.380;13.762;2023-06-10T10:10:16;34.00;28.50
27266;DHT22;14766;51.380;13.762;2023-06-10T10:12:46;33.90;28.50
27266;DHT22;14766;51.380;13.762;2023-06-10T10:15:16;34.00;28.70
27266;DHT22;14766;51.380;13.762;2023-06-10T10:18:09;33.90;28.70
27266;DHT22;14766;51.380;13.762;2023-06-10T10:20:47;34.00;28.90
27266;DHT22;14766;51.380;13.762;2023-06-10T10:23:21;34.10;29.40
27266;DHT22;14766;51.380;13.762;2023-06-10T10:25:53;34.20;29.40
27266;DHT22;14766;51.380;13.762;2023-06-10T10:28:24;34.20;28.80
27266;DHT22;14766;51.380;13.762;2023-06-10T10:30:59;34.30;28.20
27266;DHT22;14766;51.380;13.762;2023-06-10T10:33:40;34.30;28.10
27266;DHT22;14766;51.380;13.762;2023-06-10T10:36:08;34.30;28.10
27266;DHT22;14766;51.380;13.762;2023-06-10T10:38:36;34.20;27.90
27266;DHT22;14766;51.380;13.762;2023-06-10T10:41:05;34.20;28.30
27266;DHT22;14766;51.380;13.762;2023-06-10T10:43:33;34.20;29.00
27266;DHT22;14766;51.380;13.762;2023-06-10T10:46:08;34.10;29.50
27266;DHT22;14766;51.380;13.762;2023-06-10T10:48:38;34.10;30.00
27266;DHT22;14766;51.380;13.762;2023-06-10T10:51:07;34.00;30.90
27266;DHT22;14766;51.380;13.762;2023-06-10T10:53:38;33.90;31.00
27266;DHT22;14766;51.380;13.762;2023-06-10T10:56:07;33.90;30.70
27266;DHT22;14766;51.380;13.762;2023-06-10T10:58:37;33.90;30.10
27266;DHT22;14766;51.380;13.762;2023-06-10T11:01:14;33.80;29.60
27266;DHT22;14766;51.380;13.762;2023-06-10T11:03:44;33.80;29.50
27266;DHT22;14766;51.380;13.762;2023-06-10T11:06:16;33.70;29.30
27266;DHT22;14766;51.380;13.762;2023-06-10T11:11:19;33.40;29.50
27266;DHT22;14766;51.380;13.762;2023-06-10T11:16:41;33.00;29.50
27266;DHT22;14766;51.380;13.762;2023-06-10T11:19:09;32.80;29.60
27266;DHT22;14766;51.380;13.762;2023-06-10T11:21:57;32.70;29.60
27266;DHT22;14766;51.380;13.762;2023-06-10T11:24:28;32.60;29.70
27266;DHT22;14766;51.380;13.762;2023-06-10T11:26:55;32.50;29.90
27266;DHT22;14766;51.380;13.762;2023-06-10T11:32:32;32.30;29.20
27266;DHT22;14766;51.380;13.762;2023-06-10T11:35:04;32.30;29.50
27266;DHT22;14766;51.380;13.762;2023-06-10T11:37:32;32.20;29.40
27266;DHT22;14766;51.380;13.762;2023-06-10T11:39:59;32.10;28.40
27266;DHT22;14766;51.380;13.762;2023-06-10T11:42:27;32.10;28.30
27266;DHT22;14766;51.380;13.762;2023-06-10T11:44:54;32.10;28.10
27266;DHT22;14766;51.380;13.762;2023-06-10T11:47:22;32.10;28.60
27266;DHT22;14766;51.380;13.762;2023-06-10T11:49:57;32.10;28.80
27266;DHT22;14766;51.380;13.762;2023-06-10T11:52:31;32.10;28.40
27266;DHT22;14766;51.380;13.762;2023-06-10T11:55:07;32.20;28.60
27266;DHT22;14766;51.380;13.762;2023-06-10T11:57:37;32.30;28.40
27266;DHT22;14766;51.380;13.762;2023-06-10T12:00:06;32.40;28.20
27266;DHT22;14766;51.380;13.762;2023-06-10T12:02:37;32.30;27.90
27266;DHT22;14766;51.380;13.762;2023-06-10T12:05:12;32.30;28.10
27266;DHT22;14766;51.380;13.762;2023-06-10T12:07:40;32.30;28.30
27266;DHT22;14766;51.380;13.762;2023-06-10T12:10:07;32.10;28.20
27266;DHT22;14766;51.380;13.762;2023-06-10T12:12:52;32.10;28.30
27266;DHT22;14766;51.380;13.762;2023-06-10T12:15:26;32.00;28.60
27266;DHT22;14766;51.380;13.762;2023-06-10T12:17:56;32.00;29.00
27266;DHT22;14766;51.380;13.762;2023-06-10T12:20:28;32.00;29.10
27266;DHT22;14766;51.380;13.762;2023-06-10T12:22:56;32.10;27.70
27266;DHT22;14766;51.380;13.762;2023-06-10T12:25:26;32.10;27.60
27266;DHT22;14766;51.380;13.762;2023-06-10T12:27:57;32.10;28.00
27266;DHT22;14766;51.380;13.762;2023-06-10T12:30:26;32.10;27.70
27266;DHT22;14766;51.380;13.762;2023-06-10T12:32:54;32.20;27.40
27266;DHT22;14766;51.380;13.762;2023-06-10T12:35:23;32.20;27.40
27266;DHT22;14766;51.380;13.762;2023-06-10T12:38:02;32.30;27.40
27266;DHT22;14766;51.380;13.762;2023-06-10T12:40:33;32.30;27.40
27266;DHT22;14766;51.380;13.762;2023-06-10T12:43:01;32.30;27.50
27266;DHT22;14766;51.380;13.762;2023-06-10T12:45:31;32.40;28.20
27266;DHT22;14766;51.380;13.762;2023-06-10T12:48:25;32.50;27.80
27266;DHT22;14766;51.380;13.762;2023-06-10T12:50:57;32.50;27.50
27266;DHT22;14766;51.380;13.762;2023-06-10T12:53:25;32.50;27.30
27266;DHT22;14766;51.380;13.762;2023-06-10T12:55:56;32.50;27.50
27266;DHT22;14766;51.380;13.762;2023-06-10T12:58:25;32.50;27.70
27266;DHT22;14766;51.380;13.762;2023-06-10T13:00:52;32.40;27.50
27266;DHT22;14766;51.380;13.762;2023-06-10T13:03:25;32.40;27.30
27266;DHT22;14766;51.380;13.762;2023-06-10T13:05:53;32.40;27.80
27266;DHT22;14766;51.380;13.762;2023-06-10T13:08:20;32.30;27.30
27266;DHT22;14766;51.380;13.762;2023-06-10T13:10:47;32.30;27.50
27266;DHT22;14766;51.380;13.762;2023-06-10T13:13:15;32.30;27.60
27266;DHT22;14766;51.380;13.762;2023-06-10T13:15:42;32.30;27.80
27266;DHT22;14766;51.380;13.762;2023-06-10T13:18:10;32.30;27.70
27266;DHT22;14766;51.380;13.762;2023-06-10T13:20:38;32.30;27.60
27266;DHT22;14766;51.380;13.762;2023-06-10T13:23:05;32.30;27.00
27266;DHT22;14766;51.380;13.762;2023-06-10T13:25:32;32.30;27.20
27266;DHT22;14766;51.380;13.762;2023-06-10T13:28:00;32.40;27.40
27266;DHT22;14766;51.380;13.762;2023-06-10T13:30:29;32.40;27.00
27266;DHT22;14766;51.380;13.762;2023-06-10T13:32:56;32.50;26.70
27266;DHT22;14766;51.380;13.762;2023-06-10T13:35:23;32.40;26.50
27266;DHT22;14766;51.380;13.762;2023-06-10T13:37:50;32.50;26.80
27266;DHT22;14766;51.380;13.762;2023-06-10T13:40:17;32.40;27.20
27266;DHT22;14766;51.380;13.762;2023-06-10T13:42:46;32.40;27.80
27266;DHT22;14766;51.380;13.762;2023-06-10T13:45:17;32.40;27.70
27266;DHT22;14766;51.380;13.762;2023-06-10T13:47:44;32.30;27.30
27266;DHT22;14766;51.380;13.762;2023-06-10T13:50:12;32.30;27.50
27266;DHT22;14766;51.380;13.762;2023-06-10T13:52:40;32.20;27.50
27266;DHT22;14766;51.380;13.762;2023-06-10T13:55:07;32.20;27.80
27266;DHT22;14766;51.380;13.762;2023-06-10T13:57:35;32.10;28.00
27266;DHT22;14766;51.380;13.762;2023-06-10T14:00:03;32.10;28.10
27266;DHT22;14766;51.380;13.762;2023-06-10T14:02:30;32.10;28.40
27266;DHT22;14766;51.380;13.762;2023-06-10T14:04:57;32.10;29.10
27266;DHT22;14766;51.380;13.762;2023-06-10T14:07:24;32.10;28.30
27266;DHT22;14766;51.380;13.762;2023-06-10T14:09:52;32.10;28.60
27266;DHT22;14766;51.380;13.762;2023-06-10T14:12:20;32.10;28.00
27266;DHT22;14766;51.380;13.762;2023-06-10T14:14:47;32.10;27.70
27266;DHT22;14766;51.380;13.762;2023-06-10T14:17:15;32.10;27.90
27266;DHT22;14766;51.380;13.762;2023-06-10T14:19:44;32.10;28.10
27266;DHT22;14766;51.380;13.762;2023-06-10T14:22:11;32.10;28.20
27266;DHT22;14766;51.380;13.762;2023-06-10T14:24:38;32.10;28.30
27266;DHT22;14766;51.380;13.762;2023-06-10T14:27:06;32.10;28.60
27266;DHT22;14766;51.380;13.762;2023-06-10T14:29:35;32.10;28.60
27266;DHT22;14766;51.380;13.762;2023-06-10T14:32:04;32.10;28.70
27266;DHT22;14766;51.380;13.762;2023-06-10T14:34:35;32.10;28.70
27266;DHT22;14766;51.380;13.762;2023-06-10T14:37:02;32.10;29.00
27266;DHT22;14766;51.380;13.762;2023-06-10T14:39:31;32.00;28.90
27266;DHT22;14766;51.380;13.762;2023-06-10T14:41:59;32.10;28.90
27266;DHT22;14766;51.380;13.762;2023-06-10T14:44:27;32.10;28.60
27266;DHT22;14766;51.380;13.762;2023-06-10T14:46:54;32.00;28.20
27266;DHT22;14766;51.380;13.762;2023-06-10T14:49:22;32.00;27.80
27266;DHT22;14766;51.380;13.762;2023-06-10T14:51:49;31.90;27.80
27266;DHT22;14766;51.380;13.762;2023-06-10T14:54:16;31.90;28.00
27266;DHT22;14766;51.380;13.762;2023-06-10T14:56:44;31.80;28.50
27266;DHT22;14766;51.380;13.762;2023-06-10T14:59:13;31.70;32.70
27266;DHT22;14766;51.380;13.762;2023-06-10T15:01:40;31.60;36.10
27266;DHT22;14766;51.380;13.762;2023-06-10T15:04:08;31.50;37.50
27266;DHT22;14766;51.380;13.762;2023-06-10T15:06:35;31.40;38.60
27266;DHT22;14766;51.380;13.762;2023-06-10T15:09:02;31.10;38.60
27266;DHT22;14766;51.380;13.762;2023-06-10T15:11:29;31.00;39.30
27266;DHT22;14766;51.380;13.762;2023-06-10T15:13:58;30.80;39.70
27266;DHT22;14766;51.380;13.762;2023-06-10T15:16:25;30.60;39.90
27266;DHT22;14766;51.380;13.762;2023-06-10T15:18:53;30.40;40.60
27266;DHT22;14766;51.380;13.762;2023-06-10T15:21:20;30.30;40.10
27266;DHT22;14766;51.380;13.762;2023-06-10T15:23:47;30.10;40.20
27266;DHT22;14766;51.380;13.762;2023-06-10T15:26:14;30.00;40.40
27266;DHT22;14766;51.380;13.762;2023-06-10T15:28:41;29.90;40.40
27266;DHT22;14766;51.380;13.762;2023-06-10T15:31:09;29.80;41.00
27266;DHT22;14766;51.380;13.762;2023-06-10T15:33:37;29.80;40.90
27266;DHT22;14766;51.380;13.762;2023-06-10T15:36:04;29.60;35.90
27266;DHT22;14766;51.380;13.762;2023-06-10T15:38:32;29.40;35.70
27266;DHT22;14766;51.380;13.762;2023-06-10T15:40:59;29.30;36.80
27266;DHT22;14766;51.380;13.762;2023-06-10T15:43:27;29.00;39.70